sensor_id;sensor_type;location;lat;lon;timestamp;pressure;altitude;pressure_sealevel;temperature;humidity
64078;BME280;51039;49.696;10.808;2023-02-18T00:01:27;98987.03;;;9.78;100.00
64078;BME280;51039;49.696;10.808;2023-02-18T00:03:54;98988.28;;;9.82;100.00
64078;BME280;51039;49.696;10.808;2023-02-18T00:06:20;98982.66;;;9.86;100.00
64078;BME280;51039;49.696;10.808;2023-02-18T00:08:51;98988.59;;;9.88;100.00
64078;BME280;51039;49.696;10.808;2023-02-18T00:11:18;98987.31;;;9.83;100.00
64078;BME280;51039;49.696;10.808;2023-02-18T00:13:59;98995.88;;;9.86;100.00
64078;BME280;51039;49.696;10.808;2023-02-18T00:16:27;98985.31;;;9.86;100.00
64078;BME280;51039;49.696;10.808;2023-02-18T00:18:57;98992.59;;;9.83;100.00
64078;BME280;51039;49.696;10.808;2023-02-18T00:21:24;98996.59;;;9.79;100.00
64078;BME280;51039;49.696;10.808;2023-02-18T00:23:50;98996.78;;;9.78;100.00
64078;BME280;51039;49.696;10.808;2023-02-18T00:26:16;99000.59;;;9.75;100.00
64078;BME280;51039;49.696;10.808;2023-02-18T00:28:43;99000.59;;;9.75;100.00
64078;BME280;51039;49.696;10.808;2023-02-18T00:31:10;98995.53;;;9.74;100.00
64078;BME280;51039;49.696;10.808;2023-02-18T00:33:40;98987.28;;;9.69;100.00
64078;BME280;51039;49.696;10.808;2023-02-18T00:36:07;98987.00;;;9.63;100.00
64078;BME280;51039;49.696;10.808;2023-02-18T00:38:35;98987.38;;;9.60;100.00
64078;BME280;51039;49.696;10.808;2023-02-18T00:41:00;98983.25;;;9.58;100.00
64078;BME280;51039;49.696;10.808;2023-02-18T00:43:26;98981.81;;;9.55;100.00
64078;BME280;51039;49.696;10.808;2023-02-18T00:45:52;98983.19;;;9.51;100.00
64078;BME280;51039;49.696;10.808;2023-02-18T00:48:18;98980.06;;;9.48;100.00
64078;BME280;51039;49.696;10.808;2023-02-18T00:50:43;98979.44;;;9.46;100.00
64078;BME280;51039;49.696;10.808;2023-02-18T00:53:09;98977.78;;;9.44;100.00
64078;BME280;51039;49.696;10.808;2023-02-18T00:55:38;98968.56;;;9.40;100.00
64078;BME280;51039;49.696;10.808;2023-02-18T00:58:04;98973.84;;;9.40;100.00
64078;BME280;51039;49.696;10.808;2023-02-18T01:00:29;98971.38;;;9.39;100.00
64078;BME280;51039;49.696;10.808;2023-02-18T01:02:55;98977.03;;;9.36;100.00
64078;BME280;51039;49.696;10.808;2023-02-18T01:05:20;98981.69;;;9.34;100.00
64078;BME280;51039;49.696;10.808;2023-02-18T01:07:45;98982.16;;;9.37;100.00
64078;BME280;51039;49.696;10.808;2023-02-18T01:10:11;98979.69;;;9.36;100.00
64078;BME280;51039;49.696;10.808;2023-02-18T01:12:36;98982.50;;;9.34;100.00
64078;BME280;51039;49.696;10.808;2023-02-18T01:15:03;98973.59;;;9.35;100.00
64078;BME280;51039;49.696;10.808;2023-02-18T01:17:29;98983.31;;;9.35;100.00
64078;BME280;51039;49.696;10.808;2023-02-18T01:19:55;98987.06;;;9.40;100.00
64078;BME280;51039;49.696;10.808;2023-02-18T01:22:20;98971.84;;;9.42;100.00
64078;BME280;51039;49.696;10.808;2023-02-18T01:24:45;98973.66;;;9.42;100.00
64078;BME280;51039;49.696;10.808;2023-02-18T01:27:11;98976.78;;;9.46;100.00
64078;BME280;51039;49.696;10.808;2023-02-18T01:29:36;98977.41;;;9.48;100.00
64078;BME280;51039;49.696;10.808;2023-02-18T01:32:01;98979.88;;;9.49;100.00
64078;BME280;51039;49.696;10.808;2023-02-18T01:34:27;98979.03;;;9.49;100.00
64078;BME280;51039;49.696;10.808;2023-02-18T01:36:52;98970.31;;;9.48;100.00
64078;BME280;51039;49.696;10.808;2023-02-18T01:39:17;98968.94;;;9.52;100.00
64078;BME280;51039;49.696;10.808;2023-02-18T01:41:42;98971.78;;;9.51;100.00
64078;BME280;51039;49.696;10.808;2023-02-18T01:44:18;98980.72;;;9.50;100.00
64078;BME280;51039;49.696;10.808;2023-02-18T01:46:46;98970.31;;;9.48;100.00
64078;BME280;51039;49.696;10.808;2023-02-18T01:49:14;98984.00;;;9.52;100.00
64078;BME280;51039;49.696;10.808;2023-02-18T01:51:49;98978.69;;;9.52;100.00
64078;BME280;51039;49.696;10.808;2023-02-18T01:54:37;98979.34;;;9.54;100.00
64078;BME280;51039;49.696;10.808;2023-02-18T01:57:09;98976.69;;;9.54;100.00
64078;BME280;51039;49.696;10.808;2023-02-18T01:59:39;98970.13;;;9.50;100.00
64078;BME280;51039;49.696;10.808;2023-02-18T02:02:11;98963.72;;;9.44;100.00
64078;BME280;51039;49.696;10.808;2023-02-18T02:04:39;98965.28;;;9.38;100.00
64078;BME280;51039;49.696;10.808;2023-02-18T02:07:05;98963.00;;;9.35;100.00
64078;BME280;51039;49.696;10.808;2023-02-18T02:09:31;98958.06;;;9.32;100.00
64078;BME280;51039;49.696;10.808;2023-02-18T02:23:28;98948.56;;;9.23;100.00
64078;BME280;51039;49.696;10.808;2023-02-18T02:32:12;98945.84;;;9.16;100.00
64078;BME280;51039;49.696;10.808;2023-02-18T02:40:13;98936.06;;;9.17;100.00
64078;BME280;51039;49.696;10.808;2023-02-18T02:45:57;98930.97;;;9.15;100.00
64078;BME280;51039;49.696;10.808;2023-02-18T02:53:54;98919.56;;;9.15;100.00
64078;BME280;51039;49.696;10.808;2023-02-18T02:56:21;98924.03;;;9.14;100.00
64078;BME280;51039;49.696;10.808;2023-02-18T02:58:57;98917.09;;;9.13;100.00
64078;BME280;51039;49.696;10.808;2023-02-18T03:01:38;98917.91;;;9.14;100.00
64078;BME280;51039;49.696;10.808;2023-02-18T03:04:22;98906.53;;;9.13;100.00
64078;BME280;51039;49.696;10.808;2023-02-18T03:07:35;98914.47;;;9.13;100.00
64078;BME280;51039;49.696;10.808;2023-02-18T03:10:02;98916.28;;;9.13;100.00
64078;BME280;51039;49.696;10.808;2023-02-18T03:17:34;98930.78;;;9.17;100.00
64078;BME280;51039;49.696;10.808;2023-02-18T03:20:09;98922.50;;;9.20;100.00
64078;BME280;51039;49.696;10.808;2023-02-18T03:22:43;98925.16;;;9.20;100.00
64078;BME280;51039;49.696;10.808;2023-02-18T03:25:12;98920.69;;;9.20;100.00
64078;BME280;51039;49.696;10.808;2023-02-18T03:27:42;98917.41;;;9.18;100.00
64078;BME280;51039;49.696;10.808;2023-02-18T03:30:16;98926.13;;;9.19;100.00
64078;BME280;51039;49.696;10.808;2023-02-18T03:32:58;98929.13;;;9.16;100.00
64078;BME280;51039;49.696;10.808;2023-02-18T03:35:27;98915.91;;;9.16;100.00
64078;BME280;51039;49.696;10.808;2023-02-18T03:37:54;98927.13;;;9.18;100.00
64078;BME280;51039;49.696;10.808;2023-02-18T03:40:27;98929.75;;;9.18;100.00
64078;BME280;51039;49.696;10.808;2023-02-18T03:42:53;98943.66;;;9.20;100.00
64078;BME280;51039;49.696;10.808;2023-02-18T03:45:18;98941.66;;;9.22;100.00
64078;BME280;51039;49.696;10.808;2023-02-18T03:47:43;98936.72;;;9.19;100.00
64078;BME280;51039;49.696;10.808;2023-02-18T03:50:09;98933.44;;;9.17;100.00
64078;BME280;51039;49.696;10.808;2023-02-18T03:52:35;98941.19;;;9.18;100.00
64078;BME280;51039;49.696;10.808;2023-02-18T03:55:01;98929.97;;;9.16;100.00
64078;BME280;51039;49.696;10.808;2023-02-18T03:57:29;98935.25;;;9.16;100.00
64078;BME280;51039;49.696;10.808;2023-02-18T03:59:55;98931.97;;;9.14;100.00
64078;BME280;51039;49.696;10.808;2023-02-18T04:02:20;98936.06;;;9.17;100.00
64078;BME280;51039;49.696;10.808;2023-02-18T04:04:45;98932.63;;;9.16;100.00
64078;BME280;51039;49.696;10.808;2023-02-18T04:07:11;98924.03;;;9.14;100.00
64078;BME280;51039;49.696;10.808;2023-02-18T04:09:36;98928.13;;;9.17;100.00
64078;BME280;51039;49.696;10.808;2023-02-18T04:12:01;98934.63;;;9.14;100.00
64078;BME280;51039;49.696;10.808;2023-02-18T04:14:27;98929.50;;;9.13;100.00
64078;BME280;51039;49.696;10.808;2023-02-18T04:16:52;98917.91;;;9.14;100.00
64078;BME280;51039;49.696;10.808;2023-02-18T04:19:17;98930.50;;;9.12;100.00
64078;BME280;51039;49.696;10.808;2023-02-18T04:21:43;98929.84;;;9.10;100.00
64078;BME280;51039;49.696;10.808;2023-02-18T04:24:08;98935.13;;;9.10;100.00
64078;BME280;51039;49.696;10.808;2023-02-18T04:26:33;98935.31;;;9.08;100.00
64078;BME280;51039;49.696;10.808;2023-02-18T04:28:58;98942.44;;;9.08;100.00
64078;BME280;51039;49.696;10.808;2023-02-18T04:31:24;98951.38;;;9.07;100.00
64078;BME280;51039;49.696;10.808;2023-02-18T04:33:49;98942.81;;;9.04;100.00
64078;BME280;51039;49.696;10.808;2023-02-18T04:36:14;98939.94;;;9.06;100.00
64078;BME280;51039;49.696;10.808;2023-02-18T04:38:40;98931.22;;;9.06;100.00
64078;BME280;51039;49.696;10.808;2023-02-18T04:41:07;98941.31;;;9.02;100.00
64078;BME280;51039;49.696;10.808;2023-02-18T04:43:32;98936.50;;;9.06;100.00
64078;BME280;51039;49.696;10.808;2023-02-18T04:45:57;98943.63;;;9.05;100.00
64078;BME280;51039;49.696;10.808;2023-02-18T04:48:22;98938.50;;;9.03;100.00
64078;BME280;51039;49.696;10.808;2023-02-18T04:50:48;98937.50;;;9.04;100.00
64078;BME280;51039;49.696;10.808;2023-02-18T04:53:13;98936.66;;;9.04;100.00
64078;BME280;51039;49.696;10.808;2023-02-18T04:55:39;98937.69;;;9.03;100.00
64078;BME280;51039;49.696;10.808;2023-02-18T04:58:04;98938.50;;;9.03;100.00
64078;BME280;51039;49.696;10.808;2023-02-18T05:00:29;98934.88;;;9.04;100.00
64078;BME280;51039;49.696;10.808;2023-02-18T05:02:54;98940.31;;;9.03;100.00
64078;BME280;51039;49.696;10.808;2023-02-18T05:05:20;98942.13;;;9.02;100.00
64078;BME280;51039;49.696;10.808;2023-02-18T05:07:45;98939.31;;;9.04;100.00
64078;BME280;51039;49.696;10.808;2023-02-18T05:10:14;98932.56;;;9.01;100.00
64078;BME280;51039;49.696;10.808;2023-02-18T05:12:41;98935.38;;;9.00;100.00
64078;BME280;51039;49.696;10.808;2023-02-18T05:15:06;98927.47;;;9.00;100.00
64078;BME280;51039;49.696;10.808;2023-02-18T05:17:32;98929.94;;;9.01;100.00
64078;BME280;51039;49.696;10.808;2023-02-18T05:19:58;98924.66;;;9.01;100.00
64078;BME280;51039;49.696;10.808;2023-02-18T05:22:23;98925.00;;;8.98;100.00
64078;BME280;51039;49.696;10.808;2023-02-18T05:24:49;98926.81;;;8.98;100.00
64078;BME280;51039;49.696;10.808;2023-02-18T05:27:14;98928.66;;;8.97;100.00
64078;BME280;51039;49.696;10.808;2023-02-18T05:29:39;98922.72;;;8.95;100.00
64078;BME280;51039;49.696;10.808;2023-02-18T05:32:05;98923.72;;;8.94;100.00
64078;BME280;51039;49.696;10.808;2023-02-18T05:34:30;98918.44;;;8.94;100.00
64078;BME280;51039;49.696;10.808;2023-02-18T05:36:55;98913.13;;;8.94;100.00
64078;BME280;51039;49.696;10.808;2023-02-18T05:39:20;98908.66;;;8.95;100.00
64078;BME280;51039;49.696;10.808;2023-02-18T05:41:46;98909.50;;;8.95;100.00
64078;BME280;51039;49.696;10.808;2023-02-18T05:44:11;98906.03;;;8.95;100.00
64078;BME280;51039;49.696;10.808;2023-02-18T05:46:55;98910.50;;;8.94;100.00
64078;BME280;51039;49.696;10.808;2023-02-18T05:49:22;98915.63;;;8.96;100.00
64078;BME280;51039;49.696;10.808;2023-02-18T05:51:48;98914.16;;;8.93;100.00
64078;BME280;51039;49.696;10.808;2023-02-18T05:54:13;98901.59;;;8.95;100.00
64078;BME280;51039;49.696;10.808;2023-02-18T05:56:38;98904.41;;;8.94;100.00
64078;BME280;51039;49.696;10.808;2023-02-18T05:59:03;98895.66;;;8.93;100.00
64078;BME280;51039;49.696;10.808;2023-02-18T06:01:29;98894.81;;;8.93;100.00
64078;BME280;51039;49.696;10.808;2023-02-18T06:03:54;98900.09;;;8.93;100.00
64078;BME280;51039;49.696;10.808;2023-02-18T06:06:20;98899.94;;;8.94;100.00
64078;BME280;51039;49.696;10.808;2023-02-18T06:08:45;98893.03;;;8.93;100.00
64078;BME280;51039;49.696;10.808;2023-02-18T06:11:10;98891.38;;;8.92;100.00
64078;BME280;51039;49.696;10.808;2023-02-18T06:13:36;98884.47;;;8.91;100.00
64078;BME280;51039;49.696;10.808;2023-02-18T06:16:01;98887.75;;;8.93;100.00
64078;BME280;51039;49.696;10.808;2023-02-18T06:18:26;98875.50;;;8.92;100.00
64078;BME280;51039;49.696;10.808;2023-02-18T06:20:51;98884.88;;;8.95;100.00
64078;BME280;51039;49.696;10.808;2023-02-18T06:23:18;98879.97;;;8.92;100.00
64078;BME280;51039;49.696;10.808;2023-02-18T06:25:43;98878.78;;;8.94;100.00
64078;BME280;51039;49.696;10.808;2023-02-18T06:28:08;98880.63;;;8.94;100.00
64078;BME280;51039;49.696;10.808;2023-02-18T06:30:34;98882.91;;;8.97;100.00
64078;BME280;51039;49.696;10.808;2023-02-18T06:32:59;98880.63;;;8.94;100.00
64078;BME280;51039;49.696;10.808;2023-02-18T06:35:28;98875.34;;;8.94;100.00
64078;BME280;51039;49.696;10.808;2023-02-18T06:37:53;98876.53;;;8.91;100.00
64078;BME280;51039;49.696;10.808;2023-02-18T06:40:18;98886.72;;;8.94;100.00
64078;BME280;51039;49.696;10.808;2023-02-18T06:42:44;98879.59;;;8.95;100.00
64078;BME280;51039;49.696;10.808;2023-02-18T06:45:09;98863.97;;;8.93;100.00
64078;BME280;51039;49.696;10.808;2023-02-18T06:47:34;98881.25;;;8.96;100.00
64078;BME280;51039;49.696;10.808;2023-02-18T06:50:00;98874.16;;;8.96;100.00
64078;BME280;51039;49.696;10.808;2023-02-18T06:52:25;98869.31;;;9.00;100.00
64078;BME280;51039;49.696;10.808;2023-02-18T06:54:50;98873.44;;;9.02;100.00
64078;BME280;51039;49.696;10.808;2023-02-18T06:57:16;98872.09;;;9.07;100.00
64078;BME280;51039;49.696;10.808;2023-02-18T06:59:41;98851.59;;;9.09;100.00
64078;BME280;51039;49.696;10.808;2023-02-18T07:02:06;98866.59;;;9.08;100.00
64078;BME280;51039;49.696;10.808;2023-02-18T07:04:31;98847.56;;;9.13;100.00
64078;BME280;51039;49.696;10.808;2023-02-18T07:06:57;98863.44;;;9.13;100.00
64078;BME280;51039;49.696;10.808;2023-02-18T07:09:22;98861.25;;;9.16;100.00
64078;BME280;51039;49.696;10.808;2023-02-18T07:11:47;98857.41;;;9.19;100.00
64078;BME280;51039;49.696;10.808;2023-02-18T07:14:13;98858.69;;;9.23;100.00
64078;BME280;51039;49.696;10.808;2023-02-18T07:16:38;98867.72;;;9.29;100.00
64078;BME280;51039;49.696;10.808;2023-02-18T07:19:03;98863.72;;;9.33;100.00
64078;BME280;51039;49.696;10.808;2023-02-18T07:21:28;98862.16;;;9.38;100.00
64078;BME280;51039;49.696;10.808;2023-02-18T07:23:54;98859.00;;;9.43;100.00
64078;BME280;51039;49.696;10.808;2023-02-18T07:26:19;98864.00;;;9.53;100.00
64078;BME280;51039;49.696;10.808;2023-02-18T07:28:44;98853.78;;;9.50;100.00
64078;BME280;51039;49.696;10.808;2023-02-18T07:31:10;98851.22;;;9.41;100.00
64078;BME280;51039;49.696;10.808;2023-02-18T07:33:35;98851.97;;;9.35;100.00
64078;BME280;51039;49.696;10.808;2023-02-18T07:36:00;98854.78;;;9.34;100.00
64078;BME280;51039;49.696;10.808;2023-02-18T07:38:27;98850.31;;;9.34;100.00
64078;BME280;51039;49.696;10.808;2023-02-18T07:40:53;98863.19;;;9.37;100.00
64078;BME280;51039;49.696;10.808;2023-02-18T07:43:19;98856.22;;;9.36;100.00
64078;BME280;51039;49.696;10.808;2023-02-18T07:45:44;98853.03;;;9.41;100.00
64078;BME280;51039;49.696;10.808;2023-02-18T07:48:09;98854.13;;;9.47;100.00
64078;BME280;51039;49.696;10.808;2023-02-18T07:50:38;98861.06;;;9.48;100.00
64078;BME280;51039;49.696;10.808;2023-02-18T07:53:04;98856.41;;;9.50;100.00
64078;BME280;51039;49.696;10.808;2023-02-18T07:55:30;98846.81;;;9.49;100.00
64078;BME280;51039;49.696;10.808;2023-02-18T07:58:18;98851.13;;;9.50;100.00
64078;BME280;51039;49.696;10.808;2023-02-18T08:00:45;98847.56;;;9.57;100.00
64078;BME280;51039;49.696;10.808;2023-02-18T08:03:12;98836.81;;;9.59;100.00
64078;BME280;51039;49.696;10.808;2023-02-18T08:05:38;98837.91;;;9.65;100.00
64078;BME280;51039;49.696;10.808;2023-02-18T08:08:03;98842.25;;;9.72;100.00
64078;BME280;51039;49.696;10.808;2023-02-18T08:10:29;98833.84;;;9.83;100.00
64078;BME280;51039;49.696;10.808;2023-02-18T08:12:54;98830.41;;;10.05;100.00
64078;BME280;51039;49.696;10.808;2023-02-18T08:15:19;98833.69;;;10.28;100.00
64078;BME280;51039;49.696;10.808;2023-02-18T08:17:45;98822.31;;;11.06;97.60
64078;BME280;51039;49.696;10.808;2023-02-18T08:20:10;98821.25;;;11.83;93.35
64078;BME280;51039;49.696;10.808;2023-02-18T08:22:35;98816.44;;;12.00;90.99
64078;BME280;51039;49.696;10.808;2023-02-18T08:25:01;98819.59;;;12.57;89.56
64078;BME280;51039;49.696;10.808;2023-02-18T08:27:27;98812.63;;;12.49;88.04
64078;BME280;51039;49.696;10.808;2023-02-18T08:29:52;98809.94;;;12.23;89.08
64078;BME280;51039;49.696;10.808;2023-02-18T08:32:17;98817.66;;;12.04;88.78
64078;BME280;51039;49.696;10.808;2023-02-18T08:34:43;98821.66;;;11.80;90.24
64078;BME280;51039;49.696;10.808;2023-02-18T08:37:08;98804.59;;;12.03;89.20
64078;BME280;51039;49.696;10.808;2023-02-18T08:39:33;98816.06;;;12.23;87.67
64078;BME280;51039;49.696;10.808;2023-02-18T08:42:00;98810.94;;;12.08;86.93
64078;BME280;51039;49.696;10.808;2023-02-18T08:44:26;98810.69;;;11.96;87.26
64078;BME280;51039;49.696;10.808;2023-02-18T08:46:51;98810.56;;;12.45;85.64
64078;BME280;51039;49.696;10.808;2023-02-18T08:49:16;98786.84;;;12.56;84.41
64078;BME280;51039;49.696;10.808;2023-02-18T08:51:44;98783.19;;;12.44;84.34
64078;BME280;51039;49.696;10.808;2023-02-18T08:54:10;98778.69;;;12.58;83.69
64078;BME280;51039;49.696;10.808;2023-02-18T08:56:35;98780.09;;;12.87;83.07
64078;BME280;51039;49.696;10.808;2023-02-18T08:59:00;98769.88;;;12.64;83.89
64078;BME280;51039;49.696;10.808;2023-02-18T09:01:26;98769.28;;;12.55;84.35
64078;BME280;51039;49.696;10.808;2023-02-18T09:03:51;98757.03;;;12.41;85.34
64078;BME280;51039;49.696;10.808;2023-02-18T09:06:16;98770.06;;;11.96;86.84
64078;BME280;51039;49.696;10.808;2023-02-18T09:08:42;98769.16;;;11.75;87.64
64078;BME280;51039;49.696;10.808;2023-02-18T09:11:07;98765.28;;;11.65;87.96
64078;BME280;51039;49.696;10.808;2023-02-18T09:13:34;98771.34;;;11.58;88.74
64078;BME280;51039;49.696;10.808;2023-02-18T09:16:01;98773.38;;;11.56;88.27
64078;BME280;51039;49.696;10.808;2023-02-18T09:18:30;98771.56;;;11.57;88.81
64078;BME280;51039;49.696;10.808;2023-02-18T09:20:56;98773.59;;;11.55;89.33
64078;BME280;51039;49.696;10.808;2023-02-18T09:23:24;98770.72;;;11.50;90.04
64078;BME280;51039;49.696;10.808;2023-02-18T09:25:51;98778.88;;;11.42;90.72
64078;BME280;51039;49.696;10.808;2023-02-18T09:28:18;98775.31;;;11.28;90.57
64078;BME280;51039;49.696;10.808;2023-02-18T09:30:43;98771.47;;;11.30;91.16
64078;BME280;51039;49.696;10.808;2023-02-18T09:33:08;98772.09;;;11.32;90.33
64078;BME280;51039;49.696;10.808;2023-02-18T09:35:37;98771.41;;;11.24;90.72
64078;BME280;51039;49.696;10.808;2023-02-18T09:38:03;98765.75;;;11.33;91.28
64078;BME280;51039;49.696;10.808;2023-02-18T09:40:29;98771.41;;;11.24;90.61
64078;BME280;51039;49.696;10.808;2023-02-18T09:42:59;98769.38;;;11.26;90.53
64078;BME280;51039;49.696;10.808;2023-02-18T09:45:26;98763.69;;;11.22;90.73
64078;BME280;51039;49.696;10.808;2023-02-18T09:47:52;98758.88;;;11.04;91.58
64078;BME280;51039;49.696;10.808;2023-02-18T09:52:54;98754.63;;;11.10;91.15
64078;BME280;51039;49.696;10.808;2023-02-18T09:55:27;98751.34;;;11.08;91.52
64078;BME280;51039;49.696;10.808;2023-02-18T09:57:56;98742.19;;;11.10;91.70
64078;BME280;51039;49.696;10.808;2023-02-18T10:00:36;98747.78;;;11.29;91.05
64078;BME280;51039;49.696;10.808;2023-02-18T10:05:53;98750.91;;;11.46;90.14
64078;BME280;51039;49.696;10.808;2023-02-18T10:08:24;98733.63;;;11.63;89.42
64078;BME280;51039;49.696;10.808;2023-02-18T10:10:53;98747.34;;;11.87;88.61
64078;BME280;51039;49.696;10.808;2023-02-18T10:13:20;98750.44;;;11.84;87.53
64078;BME280;51039;49.696;10.808;2023-02-18T10:15:48;98732.63;;;11.77;88.24
64078;BME280;51039;49.696;10.808;2023-02-18T10:18:25;98739.25;;;12.02;88.04
64078;BME280;51039;49.696;10.808;2023-02-18T10:20:55;98723.94;;;12.04;87.31
64078;BME280;51039;49.696;10.808;2023-02-18T10:23:24;98724.34;;;12.07;86.19
64078;BME280;51039;49.696;10.808;2023-02-18T10:25:51;98729.84;;;12.12;84.67
64078;BME280;51039;49.696;10.808;2023-02-18T10:28:18;98737.00;;;12.05;85.49
64078;BME280;51039;49.696;10.808;2023-02-18T10:30:51;98730.88;;;12.11;85.72
64078;BME280;51039;49.696;10.808;2023-02-18T10:33:31;98712.91;;;12.07;85.67
64078;BME280;51039;49.696;10.808;2023-02-18T10:36:08;98715.56;;;12.07;85.32
64078;BME280;51039;49.696;10.808;2023-02-18T10:38:54;98698.59;;;12.34;83.51
64078;BME280;51039;49.696;10.808;2023-02-18T10:44:29;98701.16;;;12.81;82.17
64078;BME280;51039;49.696;10.808;2023-02-18T10:47:08;98711.00;;;12.81;82.14
64078;BME280;51039;49.696;10.808;2023-02-18T10:50:00;98709.16;;;12.68;80.64
64078;BME280;51039;49.696;10.808;2023-02-18T10:52:29;98705.28;;;12.64;80.75
64078;BME280;51039;49.696;10.808;2023-02-18T10:55:01;98704.91;;;12.53;81.91
64078;BME280;51039;49.696;10.808;2023-02-18T10:57:30;98703.88;;;12.54;81.33
64078;BME280;51039;49.696;10.808;2023-02-18T11:00:00;98685.31;;;12.34;81.68
64078;BME280;51039;49.696;10.808;2023-02-18T11:02:35;98703.28;;;12.12;83.34
64078;BME280;51039;49.696;10.808;2023-02-18T11:05:05;98698.19;;;12.11;82.99
64078;BME280;51039;49.696;10.808;2023-02-18T11:07:43;98693.03;;;12.56;81.73
64078;BME280;51039;49.696;10.808;2023-02-18T11:10:14;98690.38;;;12.63;80.72
64078;BME280;51039;49.696;10.808;2023-02-18T11:12:47;98682.19;;;12.71;80.79
64078;BME280;51039;49.696;10.808;2023-02-18T11:17:42;98666.88;;;12.60;80.47
64078;BME280;51039;49.696;10.808;2023-02-18T11:22:46;98670.78;;;12.37;80.54
64078;BME280;51039;49.696;10.808;2023-02-18T11:25:26;98668.13;;;12.37;81.40
64078;BME280;51039;49.696;10.808;2023-02-18T11:27:58;98670.19;;;12.22;80.58
64078;BME280;51039;49.696;10.808;2023-02-18T11:30:48;98664.66;;;12.36;81.54
64078;BME280;51039;49.696;10.808;2023-02-18T11:33:21;98652.53;;;12.67;81.12
64078;BME280;51039;49.696;10.808;2023-02-18T11:35:54;98644.63;;;12.47;80.16
64078;BME280;51039;49.696;10.808;2023-02-18T11:38:25;98656.09;;;12.21;81.33
64078;BME280;51039;49.696;10.808;2023-02-18T11:41:17;98672.84;;;12.08;82.44
64078;BME280;51039;49.696;10.808;2023-02-18T11:43:46;98663.47;;;11.92;82.71
64078;BME280;51039;49.696;10.808;2023-02-18T11:46:21;98656.69;;;11.70;83.32
64078;BME280;51039;49.696;10.808;2023-02-18T11:48:49;98657.09;;;11.73;83.94
64078;BME280;51039;49.696;10.808;2023-02-18T11:51:16;98659.34;;;11.76;84.12
64078;BME280;51039;49.696;10.808;2023-02-18T11:53:58;98652.00;;;11.85;83.38
64078;BME280;51039;49.696;10.808;2023-02-18T11:56:27;98641.16;;;11.73;83.71
64078;BME280;51039;49.696;10.808;2023-02-18T11:58:55;98644.84;;;11.72;84.34
64078;BME280;51039;49.696;10.808;2023-02-18T12:01:36;98637.50;;;11.61;84.99
64078;BME280;51039;49.696;10.808;2023-02-18T12:04:11;98622.97;;;11.50;85.91
64078;BME280;51039;49.696;10.808;2023-02-18T12:06:53;98639.72;;;11.44;86.29
64078;BME280;51039;49.696;10.808;2023-02-18T12:14:56;98629.09;;;11.44;85.92
64078;BME280;51039;49.696;10.808;2023-02-18T12:20:30;98625.03;;;11.75;83.44
64078;BME280;51039;49.696;10.808;2023-02-18T12:31:17;98621.19;;;12.11;80.97
64078;BME280;51039;49.696;10.808;2023-02-18T12:36:36;98628.34;;;11.97;80.87
64078;BME280;51039;49.696;10.808;2023-02-18T12:55:52;98597.84;;;12.33;74.21
64078;BME280;51039;49.696;10.808;2023-02-18T13:12:58;98607.41;;;12.54;72.82
64078;BME280;51039;49.696;10.808;2023-02-18T13:15:49;98590.41;;;12.68;72.14
64078;BME280;51039;49.696;10.808;2023-02-18T13:18:23;98593.28;;;12.60;71.96
64078;BME280;51039;49.696;10.808;2023-02-18T13:20:55;98592.72;;;12.51;72.52
64078;BME280;51039;49.696;10.808;2023-02-18T13:23:27;98582.19;;;12.70;72.01
64078;BME280;51039;49.696;10.808;2023-02-18T13:25:58;98580.34;;;12.77;71.48
64078;BME280;51039;49.696;10.808;2023-02-18T13:31:30;98581.94;;;12.85;71.57
64078;BME280;51039;49.696;10.808;2023-02-18T13:39:17;98589.03;;;12.39;71.31
64078;BME280;51039;49.696;10.808;2023-02-18T13:41:45;98586.84;;;12.23;72.06
64078;BME280;51039;49.696;10.808;2023-02-18T13:46:51;98582.38;;;12.16;72.23
64078;BME280;51039;49.696;10.808;2023-02-18T13:49:22;98586.25;;;12.21;71.90
64078;BME280;51039;49.696;10.808;2023-02-18T13:51:50;98594.81;;;12.23;72.23
64078;BME280;51039;49.696;10.808;2023-02-18T13:54:23;98594.00;;;12.29;71.94
64078;BME280;51039;49.696;10.808;2023-02-18T13:56:53;98605.22;;;12.31;71.49
64078;BME280;51039;49.696;10.808;2023-02-18T13:59:23;98593.78;;;12.30;72.78
64078;BME280;51039;49.696;10.808;2023-02-18T14:09:58;98611.38;;;12.11;72.66
64078;BME280;51039;49.696;10.808;2023-02-18T14:31:00;98612.19;;;11.65;75.40
64078;BME280;51039;49.696;10.808;2023-02-18T14:33:55;98613.59;;;11.68;75.81
64078;BME280;51039;49.696;10.808;2023-02-18T14:50:36;98604.22;;;11.45;75.59
64078;BME280;51039;49.696;10.808;2023-02-18T14:53:06;98600.13;;;11.43;76.17
64078;BME280;51039;49.696;10.808;2023-02-18T14:55:38;98619.28;;;11.31;76.92
64078;BME280;51039;49.696;10.808;2023-02-18T14:58:12;98607.84;;;11.24;76.89
64078;BME280;51039;49.696;10.808;2023-02-18T15:00:40;98619.03;;;11.19;76.95
64078;BME280;51039;49.696;10.808;2023-02-18T15:03:11;98622.13;;;11.16;77.34
64078;BME280;51039;49.696;10.808;2023-02-18T15:05:39;98623.31;;;11.14;77.40
64078;BME280;51039;49.696;10.808;2023-02-18T15:08:09;98631.25;;;11.14;77.54
64078;BME280;51039;49.696;10.808;2023-02-18T15:10:43;98614.13;;;11.10;78.17
64078;BME280;51039;49.696;10.808;2023-02-18T15:13:33;98634.47;;;11.03;78.29
64078;BME280;51039;49.696;10.808;2023-02-18T15:16:05;98625.91;;;11.00;78.11
64078;BME280;51039;49.696;10.808;2023-02-18T15:18:36;98632.88;;;11.02;78.55
64078;BME280;51039;49.696;10.808;2023-02-18T15:21:06;98643.66;;;11.00;79.09
64078;BME280;51039;49.696;10.808;2023-02-18T15:23:34;98634.28;;;10.97;79.22
64078;BME280;51039;49.696;10.808;2023-02-18T15:26:01;98631.63;;;10.97;79.52
64078;BME280;51039;49.696;10.808;2023-02-18T15:28:31;98634.09;;;10.99;78.97
64078;BME280;51039;49.696;10.808;2023-02-18T15:30:58;98634.91;;;10.99;78.78